Time;durP1;ratioP1;P1;durP2;ratioP2;P2;SDS_P1;SDS_P2;PMS_P1;PMS_P2;Temp;Humidity;BMP_temperature;BMP_pressure;BME280_temperature;BME280_humidity;BME280_pressure;Samples;Min_cycle;Max_cycle;Signal;HPM_P1;HPM_P2
2023/01/09 00:01:34;;;;;;;6.80;5.00;;;8.70;99.90;;;;;;5110937;28;20493;-57
2023/01/09 00:04:01;;;;;;;4.60;4.20;;;8.70;99.90;;;;;;5117327;28;20520;-57
2023/01/09 00:06:30;;;;;;;7.37;5.33;;;8.80;99.90;;;;;;5116862;28;20810;-57
2023/01/09 00:08:57;;;;;;;4.60;4.20;;;8.80;99.90;;;;;;5114898;28;20450;-57
2023/01/09 00:11:24;;;;;;;5.53;5.13;;;8.80;99.90;;;;;;5117290;28;20562;-57
2023/01/09 00:13:52;;;;;;;4.30;4.00;;;8.90;99.90;;;;;;5116592;28;20932;-57
2023/01/09 00:16:19;;;;;;;4.67;4.27;;;8.80;99.90;;;;;;5114538;28;20450;-57
2023/01/09 00:18:46;;;;;;;5.17;4.67;;;8.80;99.90;;;;;;5117126;28;20443;-57
2023/01/09 00:21:14;;;;;;;4.67;4.30;;;8.80;99.90;;;;;;5116558;28;20498;-58
2023/01/09 00:23:42;;;;;;;4.80;4.40;;;8.80;99.90;;;;;;5114910;28;20881;-57
2023/01/09 00:26:12;;;;;;;4.33;3.93;;;8.80;99.90;;;;;;5116889;28;20450;-58
2023/01/09 00:28:40;;;;;;;3.90;3.60;;;8.80;99.90;;;;;;5116537;28;20527;-57
2023/01/09 00:31:08;;;;;;;5.33;3.73;;;8.80;99.90;;;;;;5114663;28;20480;-57
2023/01/09 00:33:39;;;;;;;4.80;4.40;;;8.70;99.90;;;;;;5116794;28;20438;-57
2023/01/09 00:36:07;;;;;;;3.97;3.57;;;8.80;99.90;;;;;;5115757;28;20972;-57
2023/01/09 00:38:35;;;;;;;4.50;4.10;;;8.80;99.90;;;;;;5114225;28;20943;-57
2023/01/09 00:41:06;;;;;;;4.00;3.70;;;8.80;99.90;;;;;;5116037;28;20490;-57
2023/01/09 00:43:38;;;;;;;3.30;3.00;;;8.80;99.90;;;;;;5115829;28;20972;-56
2023/01/09 00:46:07;;;;;;;3.37;3.07;;;8.80;99.90;;;;;;5114705;28;20428;-58
2023/01/09 00:48:37;;;;;;;3.13;2.93;;;8.80;99.90;;;;;;5115949;28;20810;-57
2023/01/09 00:51:07;;;;;;;3.17;2.87;;;8.70;99.90;;;;;;5116314;28;20493;-58
2023/01/09 00:53:37;;;;;;;3.33;3.03;;;8.80;99.90;;;;;;5113924;28;20438;-57
2023/01/09 00:56:09;;;;;;;3.70;3.40;;;8.80;99.90;;;;;;5115751;28;20541;-57
2023/01/09 00:58:37;;;;;;;2.97;2.77;;;8.80;99.90;;;;;;5115599;28;20427;-57
2023/01/09 01:01:04;;;;;;;3.20;2.90;;;8.80;99.90;;;;;;5114057;28;20470;-57
2023/01/09 01:03:32;;;;;;;3.00;2.80;;;8.90;99.90;;;;;;5115322;28;20518;-57
2023/01/09 01:08:44;;;;;;;2.63;2.40;;;8.90;99.90;;;;;;5113861;28;20531;-57
2023/01/09 01:11:13;;;;;;;2.33;2.13;;;8.90;99.90;;;;;;5115151;28;20655;-57
2023/01/09 01:13:41;;;;;;;1.90;1.70;;;8.90;99.90;;;;;;5115118;28;20443;-57
2023/01/09 01:16:11;;;;;;;2.13;2.00;;;9.00;99.90;;;;;;5113853;28;20453;-57
2023/01/09 01:18:39;;;;;;;1.97;1.87;;;8.90;99.90;;;;;;5115488;28;20435;-56
2023/01/09 01:21:07;;;;;;;2.00;1.80;;;8.90;99.90;;;;;;5115604;28;20462;-57
2023/01/09 01:23:35;;;;;;;2.00;1.90;;;8.80;99.90;;;;;;5112657;28;20489;-57
2023/01/09 01:26:05;;;;;;;1.70;1.60;;;8.80;99.90;;;;;;5115664;28;20469;-57
2023/01/09 01:28:34;;;;;;;2.07;1.87;;;8.80;99.90;;;;;;5115174;28;20447;-57
2023/01/09 01:31:01;;;;;;;1.73;1.63;;;8.90;99.90;;;;;;5113327;28;20462;-57
2023/01/09 01:33:28;;;;;;;2.33;1.80;;;8.90;99.90;;;;;;5114545;28;20457;-57
2023/01/09 01:36:03;;;;;;;2.33;1.77;;;8.80;99.90;;;;;;5115534;28;20441;-57
2023/01/09 01:38:31;;;;;;;1.60;1.50;;;8.80;99.90;;;;;;5112937;28;20464;-56
2023/01/09 01:40:58;;;;;;;1.40;1.30;;;8.80;99.90;;;;;;5114542;28;20478;-57
2023/01/09 01:43:25;;;;;;;1.50;1.40;;;8.80;99.90;;;;;;5114671;28;20482;-56
2023/01/09 01:45:54;;;;;;;1.60;1.50;;;8.80;99.90;;;;;;5113122;28;20562;-56
2023/01/09 01:48:24;;;;;;;1.43;1.30;;;8.80;99.90;;;;;;5115105;28;20809;-56
2023/01/09 01:50:56;;;;;;;1.63;1.53;;;8.80;99.90;;;;;;5114458;28;20470;-57
2023/01/09 01:53:26;;;;;;;1.70;1.60;;;8.80;99.90;;;;;;5112862;28;20431;-57
2023/01/09 01:56:04;;;;;;;1.33;1.23;;;8.70;99.90;;;;;;5115339;28;20514;-57
2023/01/09 01:58:34;;;;;;;1.70;1.60;;;8.70;99.90;;;;;;5114604;28;20427;-57
2023/01/09 02:01:03;;;;;;;1.50;1.40;;;8.70;99.90;;;;;;5112593;28;20539;-57
2023/01/09 02:03:30;;;;;;;1.60;1.30;;;8.70;99.90;;;;;;5114674;28;20839;-57
2023/01/09 02:05:57;;;;;;;1.40;1.30;;;8.70;99.90;;;;;;5114857;28;20439;-56
2023/01/09 02:08:24;;;;;;;1.30;1.20;;;8.70;99.90;;;;;;5112647;28;20451;-57
2023/01/09 02:10:53;;;;;;;2.17;1.27;;;8.70;99.90;;;;;;5114495;28;20562;-57
2023/01/09 02:13:26;;;;;;;1.30;1.20;;;8.80;99.90;;;;;;5114629;28;20438;-57
2023/01/09 02:16:07;;;;;;;1.53;1.40;;;8.80;99.90;;;;;;5111885;28;20442;-57
2023/01/09 02:18:46;;;;;;;1.53;1.43;;;8.80;99.90;;;;;;5113836;28;20815;-57
2023/01/09 02:21:22;;;;;;;1.50;1.40;;;8.80;99.90;;;;;;5114288;28;20492;-56
2023/01/09 02:24:41;;;;;;;1.30;1.20;;;8.90;99.90;;;;;;5113247;28;20477;-56
2023/01/09 02:27:35;;;;;;;1.40;1.30;;;8.90;99.90;;;;;;5114029;28;20537;-57
2023/01/09 02:30:19;;;;;;;1.40;1.30;;;8.90;99.90;;;;;;5112181;28;20462;-57
2023/01/09 02:32:59;;;;;;;1.50;1.40;;;8.90;99.90;;;;;;5114239;28;20498;-57
2023/01/09 02:35:40;;;;;;;2.23;1.40;;;8.70;99.90;;;;;;5114145;28;20435;-57
2023/01/09 02:38:16;;;;;;;1.40;1.30;;;8.70;99.90;;;;;;5110983;28;20430;-56
2023/01/09 02:40:53;;;;;;;1.27;1.17;;;8.70;99.90;;;;;;5113036;28;20481;-57
2023/01/09 02:43:21;;;;;;;1.50;1.40;;;8.70;99.90;;;;;;5113686;28;20470;-57
2023/01/09 02:45:49;;;;;;;1.30;1.20;;;8.70;99.90;;;;;;5111419;28;20458;-57
2023/01/09 02:48:16;;;;;;;1.50;1.40;;;8.70;99.90;;;;;;5113153;28;20458;-57
2023/01/09 02:50:50;;;;;;;1.50;1.40;;;8.80;99.90;;;;;;5113771;28;20502;-57
2023/01/09 02:53:37;;;;;;;1.57;1.47;;;8.70;99.90;;;;;;5113018;28;20526;-57
2023/01/09 02:56:30;;;;;;;1.47;1.37;;;8.80;99.90;;;;;;5113733;28;20517;-56
2023/01/09 02:59:19;;;;;;;1.30;1.20;;;8.80;99.90;;;;;;5102789;28;20543;-57
2023/01/09 03:01:59;;;;;;;2.10;1.43;;;8.80;99.90;;;;;;5113386;28;20542;-56
2023/01/09 03:04:35;;;;;;;1.30;1.20;;;8.80;99.90;;;;;;5113319;28;20546;-56
2023/01/09 03:07:08;;;;;;;1.33;1.23;;;8.70;99.90;;;;;;5111678;28;20480;-57
2023/01/09 03:09:38;;;;;;;1.40;1.30;;;8.70;99.90;;;;;;5113530;28;20497;-57
2023/01/09 03:12:11;;;;;;;1.40;1.20;;;8.80;99.90;;;;;;5114146;28;20515;-56
2023/01/09 03:14:43;;;;;;;1.40;1.30;;;8.80;99.90;;;;;;5111154;28;20509;-56
2023/01/09 03:17:15;;;;;;;3.23;1.10;;;8.80;99.90;;;;;;5113767;28;20509;-57
2023/01/09 03:19:45;;;;;;;1.40;1.30;;;8.70;99.90;;;;;;5113047;28;20465;-56
2023/01/09 03:22:12;;;;;;;1.30;1.20;;;8.70;99.90;;;;;;5111013;28;20805;-57
2023/01/09 03:24:39;;;;;;;1.57;1.47;;;8.70;99.90;;;;;;5113224;28;21010;-57
2023/01/09 03:27:08;;;;;;;1.20;1.10;;;8.60;99.90;;;;;;5113371;28;20442;-57
2023/01/09 03:29:36;;;;;;;1.23;1.13;;;8.50;99.90;;;;;;5111408;28;20446;-57
2023/01/09 03:32:03;;;;;;;1.30;1.20;;;8.40;99.90;;;;;;5113206;28;20533;-57
2023/01/09 03:34:32;;;;;;;1.30;1.20;;;8.40;99.90;;;;;;5113329;28;20449;-57
2023/01/09 03:36:59;;;;;;;5.53;1.13;;;8.50;99.90;;;;;;5110346;28;20456;-57
2023/01/09 03:39:26;;;;;;;1.77;1.40;;;8.50;99.90;;;;;;5112629;28;20768;-56
2023/01/09 03:41:53;;;;;;;1.50;1.40;;;8.40;99.90;;;;;;5112810;28;20529;-57
2023/01/09 03:44:20;;;;;;;2.20;1.20;;;8.50;99.90;;;;;;5110851;28;20482;-57
2023/01/09 03:46:49;;;;;;;1.40;1.30;;;8.50;99.90;;;;;;5113084;28;20439;-57
2023/01/09 03:49:16;;;;;;;2.30;1.20;;;8.50;99.90;;;;;;5112710;28;20447;-56
2023/01/09 03:51:44;;;;;;;1.40;1.30;;;8.40;99.90;;;;;;5110930;28;20980;-57
2023/01/09 03:54:12;;;;;;;1.20;1.10;;;8.20;99.90;;;;;;5112625;28;20446;-57
2023/01/09 03:56:39;;;;;;;2.60;1.23;;;8.20;99.90;;;;;;5112894;28;20474;-57
2023/01/09 03:59:06;;;;;;;1.20;1.10;;;8.20;99.90;;;;;;5110722;28;20458;-57
2023/01/09 04:01:34;;;;;;;1.20;1.10;;;8.20;99.90;;;;;;5112273;28;20990;-57
2023/01/09 04:04:01;;;;;;;1.20;1.10;;;8.10;99.90;;;;;;5111630;28;20484;-56
2023/01/09 04:06:28;;;;;;;1.50;1.40;;;8.10;99.90;;;;;;5110357;28;20452;-57
2023/01/09 04:08:56;;;;;;;1.30;1.20;;;8.10;99.90;;;;;;5112783;28;20450;-57
2023/01/09 04:11:23;;;;;;;1.10;1.00;;;8.10;99.90;;;;;;5112835;28;20462;-57
2023/01/09 04:13:51;;;;;;;1.27;1.17;;;8.00;99.90;;;;;;5110739;28;20442;-57
2023/01/09 04:16:18;;;;;;;1.13;1.03;;;8.00;99.90;;;;;;5112732;28;20443;-57
2023/01/09 04:18:45;;;;;;;1.20;1.10;;;7.90;99.90;;;;;;5113174;28;20457;-57
2023/01/09 04:21:12;;;;;;;1.00;0.90;;;7.80;99.90;;;;;;5111086;28;20922;-57
2023/01/09 04:23:39;;;;;;;1.20;1.10;;;7.70;99.90;;;;;;5112306;28;20474;-57
2023/01/09 04:26:08;;;;;;;1.10;1.00;;;7.60;99.90;;;;;;5112420;28;20457;-56
2023/01/09 04:28:35;;;;;;;1.20;1.10;;;7.50;99.90;;;;;;5110488;28;20451;-56
2023/01/09 04:31:02;;;;;;;2.33;1.10;;;7.50;99.90;;;;;;5112722;28;20466;-56
2023/01/09 04:33:29;;;;;;;1.10;1.00;;;7.50;99.90;;;;;;5112412;28;20777;-57
2023/01/09 04:35:57;;;;;;;1.30;1.17;;;7.40;99.90;;;;;;5110157;28;20450;-56
2023/01/09 04:38:24;;;;;;;1.17;1.07;;;7.30;99.90;;;;;;5112386;28;20925;-56
2023/01/09 04:40:51;;;;;;;1.13;1.03;;;7.30;99.90;;;;;;5112463;28;20829;-57
2023/01/09 04:43:19;;;;;;;1.70;1.60;;;7.30;99.90;;;;;;5110571;28;20533;-56
2023/01/09 04:45:46;;;;;;;1.20;1.10;;;7.20;99.90;;;;;;5112338;28;20445;-56
2023/01/09 04:48:14;;;;;;;1.20;1.10;;;7.30;99.90;;;;;;5114435;28;20856;-57
2023/01/09 04:50:41;;;;;;;1.10;1.00;;;7.30;99.90;;;;;;5113247;28;20553;-57
2023/01/09 04:53:08;;;;;;;1.30;1.20;;;7.40;99.90;;;;;;5114897;28;21012;-56
2023/01/09 04:55:35;;;;;;;1.60;1.17;;;7.20;99.90;;;;;;5115738;28;20499;-56
2023/01/09 04:58:02;;;;;;;1.20;1.10;;;7.20;99.90;;;;;;5113518;28;20448;-57
2023/01/09 05:00:31;;;;;;;1.30;1.20;;;7.30;99.90;;;;;;5115785;28;21044;-56
2023/01/09 05:02:58;;;;;;;1.40;1.30;;;7.20;99.90;;;;;;5116464;28;20453;-57
2023/01/09 05:05:25;;;;;;;1.30;1.20;;;7.10;99.90;;;;;;5113251;28;20492;-56
2023/01/09 05:07:52;;;;;;;2.43;1.20;;;7.10;99.90;;;;;;5115981;28;20532;-56
2023/01/09 05:10:20;;;;;;;1.40;1.27;;;7.10;99.90;;;;;;5115504;28;20474;-56
2023/01/09 05:12:47;;;;;;;1.20;1.10;;;7.20;99.90;;;;;;5113545;28;20450;-56
2023/01/09 05:15:14;;;;;;;1.40;1.20;;;7.20;99.90;;;;;;5115917;28;20442;-56
2023/01/09 05:17:42;;;;;;;2.80;1.70;;;7.20;99.90;;;;;;5115730;28;20538;-56
2023/01/09 05:20:10;;;;;;;1.40;1.30;;;7.20;99.90;;;;;;5113112;28;20986;-56
2023/01/09 05:22:37;;;;;;;1.20;1.10;;;7.10;99.90;;;;;;5115906;28;20438;-56
2023/01/09 05:25:05;;;;;;;1.30;1.20;;;7.10;99.90;;;;;;5115404;28;20495;-56
2023/01/09 05:27:32;;;;;;;1.40;1.30;;;7.10;99.90;;;;;;5113175;28;20449;-56
2023/01/09 05:29:59;;;;;;;1.57;1.30;;;7.10;99.90;;;;;;5115604;28;20505;-56
2023/01/09 05:32:26;;;;;;;2.33;1.20;;;7.20;99.90;;;;;;5115362;28;20447;-56
2023/01/09 05:34:55;;;;;;;2.50;1.50;;;7.20;99.90;;;;;;5113188;28;20446;-57
2023/01/09 05:37:22;;;;;;;2.27;1.40;;;7.10;99.90;;;;;;5114404;28;20446;-56
2023/01/09 05:39:49;;;;;;;1.77;1.63;;;7.10;99.90;;;;;;5114695;28;20482;-56
2023/01/09 05:42:16;;;;;;;1.70;1.60;;;7.10;99.90;;;;;;5112700;28;20549;-56
2023/01/09 05:44:43;;;;;;;1.60;1.33;;;7.10;99.90;;;;;;5115058;28;20478;-56
2023/01/09 05:47:10;;;;;;;2.27;1.47;;;7.10;99.90;;;;;;5114613;28;20427;-56
2023/01/09 05:49:37;;;;;;;1.50;1.40;;;7.10;99.90;;;;;;5112703;28;20937;-56
2023/01/09 05:52:07;;;;;;;1.87;1.40;;;7.10;99.90;;;;;;5114627;28;20430;-56
2023/01/09 05:54:34;;;;;;;1.83;1.50;;;7.10;99.90;;;;;;5114302;28;20449;-57
2023/01/09 05:57:01;;;;;;;2.00;1.67;;;;;;;;;;5112413;28;20450;-57
2023/01/09 05:59:29;;;;;;;1.30;1.20;;;7.00;99.90;;;;;;5115061;28;20469;-56
2023/01/09 06:01:56;;;;;;;1.33;1.23;;;6.90;99.90;;;;;;5114342;28;20645;-56
2023/01/09 06:04:23;;;;;;;2.60;1.23;;;6.90;99.90;;;;;;5112423;28;20563;-57
2023/01/09 06:06:50;;;;;;;2.67;1.40;;;6.90;99.90;;;;;;5115009;28;20449;-56
2023/01/09 06:09:18;;;;;;;5.13;1.47;;;6.90;99.90;;;;;;5114311;28;20458;-56
2023/01/09 06:11:45;;;;;;;1.50;1.40;;;6.90;99.90;;;;;;5112203;28;20478;-56
2023/01/09 06:14:13;;;;;;;2.20;1.80;;;6.80;99.90;;;;;;5114463;28;20525;-56
2023/01/09 06:16:40;;;;;;;2.00;1.40;;;6.80;99.90;;;;;;5113877;28;20950;-56
2023/01/09 06:19:07;;;;;;;1.83;1.20;;;6.80;99.90;;;;;;5112198;28;20449;-56
2023/01/09 06:21:34;;;;;;;1.37;1.27;;;6.80;99.90;;;;;;5114522;28;20818;-57
2023/01/09 06:24:02;;;;;;;2.03;1.37;;;6.90;99.90;;;;;;5114218;28;20486;-57
2023/01/09 06:26:30;;;;;;;2.03;1.83;;;6.90;99.90;;;;;;5112182;28;20442;-57
2023/01/09 06:28:59;;;;;;;2.03;1.30;;;6.80;99.90;;;;;;5113861;28;20457;-57
2023/01/09 06:31:26;;;;;;;1.50;1.40;;;6.70;99.90;;;;;;5113466;28;20467;-56
2023/01/09 06:33:54;;;;;;;1.37;1.27;;;6.70;99.90;;;;;;5112074;28;20451;-56
2023/01/09 06:36:21;;;;;;;2.17;1.60;;;6.70;99.90;;;;;;5113801;28;20427;-57
2023/01/09 06:38:48;;;;;;;2.20;1.70;;;6.70;99.90;;;;;;5113484;28;20821;-58
2023/01/09 06:41:15;;;;;;;2.23;1.70;;;6.60;99.90;;;;;;5111837;28;20553;-57
2023/01/09 06:43:44;;;;;;;1.50;1.40;;;6.60;99.90;;;;;;5113512;28;20462;-58
2023/01/09 06:46:11;;;;;;;1.90;1.70;;;6.70;99.90;;;;;;5113827;28;20446;-58
2023/01/09 06:48:38;;;;;;;3.20;1.60;;;6.60;99.90;;;;;;5111798;28;20729;-57
2023/01/09 06:51:06;;;;;;;2.07;1.60;;;6.60;99.90;;;;;;5113140;28;20474;-57
2023/01/09 06:53:33;;;;;;;1.67;1.57;;;6.50;99.90;;;;;;5112723;28;20504;-57
2023/01/09 06:56:02;;;;;;;1.50;1.40;;;6.60;99.90;;;;;;5110979;28;20438;-57
2023/01/09 06:58:29;;;;;;;3.67;1.70;;;6.50;99.90;;;;;;5113119;28;20454;-57
2023/01/09 07:00:58;;;;;;;2.50;1.50;;;6.60;99.90;;;;;;5113365;28;20983;-57
2023/01/09 07:03:25;;;;;;;1.90;1.37;;;6.50;99.90;;;;;;5111799;28;20804;-57
2023/01/09 07:05:53;;;;;;;3.20;1.77;;;6.60;99.90;;;;;;5113152;28;20482;-57
2023/01/09 07:08:20;;;;;;;3.77;1.73;;;6.60;99.90;;;;;;5113427;28;20458;-57
2023/01/09 07:10:47;;;;;;;1.67;1.50;;;6.60;99.90;;;;;;5110748;28;20446;-58
2023/01/09 07:13:14;;;;;;;3.83;2.00;;;6.70;99.90;;;;;;5112708;28;20442;-57
2023/01/09 07:15:41;;;;;;;1.93;1.57;;;6.70;99.90;;;;;;5113365;28;20486;-56
2023/01/09 07:18:10;;;;;;;4.33;2.30;;;6.70;99.90;;;;;;5111018;28;20945;-57
2023/01/09 07:20:40;;;;;;;1.83;1.70;;;6.70;99.90;;;;;;5112318;28;20471;-56
2023/01/09 07:23:07;;;;;;;3.37;1.97;;;6.60;99.90;;;;;;5113121;28;20533;-57
2023/01/09 07:25:34;;;;;;;4.53;2.20;;;6.60;99.90;;;;;;5111357;28;20478;-56
2023/01/09 07:28:01;;;;;;;2.80;1.83;;;6.50;99.90;;;;;;5113156;28;20449;-55
2023/01/09 07:30:28;;;;;;;4.97;2.60;;;6.60;99.90;;;;;;5112920;28;20459;-56
2023/01/09 07:32:55;;;;;;;4.37;1.73;;;6.60;99.90;;;;;;5110776;28;20819;-55
2023/01/09 07:35:24;;;;;;;3.10;1.70;;;6.60;99.90;;;;;;5112838;28;20430;-55
2023/01/09 07:37:51;;;;;;;2.00;1.60;;;6.60;99.90;;;;;;5113039;28;20529;-55
2023/01/09 07:40:18;;;;;;;2.87;2.37;;;6.60;99.90;;;;;;5110699;28;20493;-55
2023/01/09 07:42:45;;;;;;;8.07;3.17;;;6.60;99.90;;;;;;5112570;28;20450;-56
2023/01/09 07:45:12;;;;;;;2.60;2.00;;;6.70;99.90;;;;;;5112730;28;20474;-56
2023/01/09 07:47:40;;;;;;;2.20;2.00;;;6.70;99.90;;;;;;5110729;28;20442;-56
2023/01/09 07:50:09;;;;;;;2.03;1.93;;;6.80;99.90;;;;;;5112004;28;20455;-56
2023/01/09 07:52:38;;;;;;;3.13;1.73;;;6.70;99.90;;;;;;5113101;28;20517;-56
2023/01/09 07:55:06;;;;;;;1.83;1.73;;;6.80;99.90;;;;;;5110782;28;20438;-56
2023/01/09 07:57:33;;;;;;;5.03;2.20;;;6.70;99.90;;;;;;5112258;28;20908;-56
2023/01/09 08:00:02;;;;;;;2.63;1.60;;;6.70;99.90;;;;;;5112717;28;20545;-56
2023/01/09 08:02:29;;;;;;;2.33;2.00;;;6.70;99.90;;;;;;5110915;28;20457;-56
2023/01/09 08:04:56;;;;;;;1.77;1.67;;;6.70;99.90;;;;;;5112159;28;20785;-56
2023/01/09 08:07:23;;;;;;;2.43;1.80;;;6.70;99.90;;;;;;5112682;28;20537;-56
2023/01/09 08:09:52;;;;;;;1.67;1.57;;;6.70;99.90;;;;;;5109987;28;20557;-56
2023/01/09 08:12:19;;;;;;;2.50;1.50;;;6.80;99.90;;;;;;5112790;28;20833;-56
2023/01/09 08:14:46;;;;;;;1.70;1.53;;;6.80;99.90;;;;;;5112579;28;20925;-56
2023/01/09 08:17:13;;;;;;;2.90;1.70;;;6.90;99.90;;;;;;5110400;28;20478;-55
2023/01/09 08:19:42;;;;;;;3.90;2.00;;;6.90;99.90;;;;;;5112819;28;20773;-55
2023/01/09 08:22:09;;;;;;;2.83;1.63;;;7.00;99.90;;;;;;5112962;28;20451;-56
2023/01/09 08:24:36;;;;;;;4.20;2.00;;;7.00;99.90;;;;;;5114301;28;20480;-55
2023/01/09 08:27:05;;;;;;;1.40;1.30;;;7.10;99.90;;;;;;5116510;28;20957;-55
2023/01/09 08:29:32;;;;;;;2.53;1.50;;;7.10;99.90;;;;;;5116644;28;20442;-55
2023/01/09 08:31:59;;;;;;;8.83;2.13;;;7.20;99.90;;;;;;5114140;28;20789;-56
2023/01/09 08:34:27;;;;;;;1.80;1.50;;;7.10;99.90;;;;;;5116707;28;20438;-55
2023/01/09 08:36:54;;;;;;;3.10;1.77;;;7.20;99.90;;;;;;5116556;28;20469;-55
2023/01/09 08:39:21;;;;;;;2.70;2.40;;;7.20;99.90;;;;;;5112105;28;20454;-55
2023/01/09 08:47:21;;;;;;;4.73;1.97;;;7.20;99.90;;;;;;5113818;28;20406;-57
2023/01/09 08:49:49;;;;;;;2.07;1.40;;;7.20;99.90;;;;;;5116597;28;20469;-56
2023/01/09 08:52:16;;;;;;;2.63;1.50;;;7.20;99.90;;;;;;5115598;28;20554;-56
2023/01/09 08:54:43;;;;;;;1.83;1.50;;;7.30;99.90;;;;;;5113899;28;20445;-55
2023/01/09 08:57:10;;;;;;;3.57;2.40;;;7.30;99.90;;;;;;5116089;28;20446;-56
2023/01/09 08:59:39;;;;;;;4.10;1.80;;;7.30;99.90;;;;;;5115425;28;20452;-56
2023/01/09 09:02:06;;;;;;;3.83;1.67;;;7.30;99.90;;;;;;5113780;28;20446;-56
2023/01/09 09:04:33;;;;;;;3.40;1.93;;;7.30;99.90;;;;;;5115595;28;20545;-56
2023/01/09 09:07:00;;;;;;;2.27;1.93;;;7.40;99.90;;;;;;5115709;28;20479;-56
2023/01/09 09:09:27;;;;;;;3.60;1.90;;;7.40;99.90;;;;;;5113896;28;20937;-56
2023/01/09 09:11:54;;;;;;;3.20;1.60;;;7.50;99.90;;;;;;5115817;28;20528;-55
2023/01/09 09:17:08;;;;;;;1.90;1.70;;;7.50;99.90;;;;;;5113536;28;20987;-56
2023/01/09 09:19:35;;;;;;;3.30;1.83;;;7.60;99.90;;;;;;5115604;28;20534;-56
2023/01/09 09:22:02;;;;;;;4.37;2.00;;;7.70;99.90;;;;;;5115381;28;20516;-56
2023/01/09 09:24:29;;;;;;;4.40;1.80;;;7.60;99.90;;;;;;5112814;28;20988;-56
2023/01/09 09:26:57;;;;;;;3.47;1.57;;;7.70;99.90;;;;;;5115424;28;20442;-56
2023/01/09 09:29:24;;;;;;;2.50;1.60;;;7.70;99.90;;;;;;5115384;28;20933;-56
2023/01/09 09:31:51;;;;;;;5.53;1.60;;;7.70;99.90;;;;;;5113441;28;20442;-56
2023/01/09 09:34:19;;;;;;;2.73;1.50;;;7.80;99.90;;;;;;5114836;28;20961;-56
2023/01/09 09:36:47;;;;;;;7.97;1.80;;;7.90;99.90;;;;;;5115058;28;21049;-56
2023/01/09 09:39:14;;;;;;;3.20;2.00;;;7.90;99.90;;;;;;5112522;28;20458;-56
2023/01/09 09:45:05;;;;;;;2.27;1.70;;;8.00;99.90;;;;;;5100994;28;20548;-56
2023/01/09 09:47:44;;;;;;;1.87;1.77;;;8.10;99.90;;;;;;5112778;28;20418;-56
2023/01/09 09:50:33;;;;;;;1.87;1.70;;;8.10;99.90;;;;;;5114807;28;20458;-56
2023/01/09 09:53:06;;;;;;;4.23;1.60;;;8.20;99.90;;;;;;5112928;28;20423;-56
2023/01/09 09:55:37;;;;;;;4.40;1.93;;;8.20;99.90;;;;;;5114663;28;20462;-55
2023/01/09 09:58:13;;;;;;;3.23;1.80;;;8.30;99.90;;;;;;5115003;28;20455;-56
2023/01/09 10:00:40;;;;;;;2.13;1.93;;;8.40;99.90;;;;;;5112550;28;20484;-55
2023/01/09 10:03:11;;;;;;;2.40;1.60;;;8.50;99.90;;;;;;5114530;28;20442;-55
2023/01/09 10:05:42;;;;;;;5.17;2.60;;;8.50;99.90;;;;;;5114401;28;20450;-55
2023/01/09 10:08:19;;;;;;;8.67;2.17;;;8.60;99.90;;;;;;5112586;28;20514;-56
2023/01/09 10:10:52;;;;;;;4.93;1.90;;;8.60;99.90;;;;;;5114489;28;20450;-55
2023/01/09 10:16:22;;;;;;;4.97;1.67;;;8.80;99.90;;;;;;5112240;28;20572;-56
2023/01/09 10:19:02;;;;;;;5.33;2.03;;;8.90;99.90;;;;;;5114510;28;20506;-56
2023/01/09 10:21:35;;;;;;;3.43;1.70;;;9.00;99.90;;;;;;5113662;28;20466;-56
2023/01/09 10:24:35;;;;;;;2.37;1.47;;;8.90;99.90;;;;;;5112066;28;20434;-55
2023/01/09 10:27:09;;;;;;;3.53;1.50;;;9.10;99.90;;;;;;5114485;28;20423;-55
2023/01/09 10:30:01;;;;;;;1.90;1.70;;;9.10;99.90;;;;;;5114049;28;20620;-56
2023/01/09 10:32:44;;;;;;;2.70;1.80;;;9.10;99.90;;;;;;5113985;28;20434;-55
2023/01/09 10:35:47;;;;;;;2.77;1.80;;;8.90;99.90;;;;;;5113743;28;20672;-55
2023/01/09 10:38:20;;;;;;;9.10;2.17;;;8.80;99.90;;;;;;5111863;28;20456;-56
2023/01/09 10:40:54;;;;;;;5.73;2.13;;;8.90;99.90;;;;;;5113734;28;20478;-56
2023/01/09 10:43:29;;;;;;;2.27;1.87;;;8.80;99.90;;;;;;5113897;28;20426;-55
2023/01/09 10:46:02;;;;;;;4.10;2.47;;;8.70;99.90;;;;;;5111244;28;20897;-56
2023/01/09 10:48:33;;;;;;;2.90;2.27;;;8.70;99.90;;;;;;5113910;28;20427;-56
2023/01/09 10:51:00;;;;;;;4.13;1.77;;;8.70;99.90;;;;;;5113504;28;20544;-55
2023/01/09 10:53:32;;;;;;;2.80;2.03;;;8.70;99.90;;;;;;5111451;28;20937;-56
2023/01/09 10:56:05;;;;;;;3.03;2.03;;;8.80;99.90;;;;;;5113559;28;20454;-55
2023/01/09 10:58:32;;;;;;;2.20;1.60;;;8.80;99.90;;;;;;5113611;28;20913;-56
2023/01/09 11:01:01;;;;;;;2.23;2.03;;;8.80;99.90;;;;;;5111374;28;20471;-55
2023/01/09 11:03:29;;;;;;;2.40;1.60;;;8.70;99.90;;;;;;5113412;28;20828;-56
2023/01/09 11:05:58;;;;;;;2.60;1.77;;;8.70;99.90;;;;;;5113745;28;20537;-57
2023/01/09 11:08:34;;;;;;;2.67;1.70;;;8.70;99.90;;;;;;5111182;28;20454;-56
2023/01/09 11:11:02;;;;;;;4.33;1.70;;;8.80;99.90;;;;;;5112815;28;20480;-56
2023/01/09 11:13:31;;;;;;;2.57;2.23;;;8.80;99.90;;;;;;5113027;28;20529;-56
2023/01/09 11:16:03;;;;;;;9.43;2.77;;;8.80;99.90;;;;;;5111546;28;20482;-56
2023/01/09 11:18:30;;;;;;;2.30;1.63;;;8.80;99.90;;;;;;5113123;28;20431;-56
2023/01/09 11:21:13;;;;;;;5.07;2.20;;;8.80;99.90;;;;;;5112784;28;20876;-56
2023/01/09 11:23:42;;;;;;;3.60;1.73;;;8.80;99.90;;;;;;5110871;28;20427;-56
2023/01/09 11:26:23;;;;;;;3.00;1.80;;;8.90;99.90;;;;;;5112894;28;20442;-55
2023/01/09 11:29:06;;;;;;;7.20;1.80;;;8.90;99.90;;;;;;5113192;28;20427;-56
2023/01/09 11:31:34;;;;;;;2.10;1.73;;;9.10;99.90;;;;;;5113195;28;20857;-56
2023/01/09 11:34:01;;;;;;;3.33;2.20;;;9.40;99.90;;;;;;5113163;28;20431;-55
2023/01/09 11:36:29;;;;;;;3.00;1.53;;;9.60;99.90;;;;;;5111245;28;20884;-56
2023/01/09 11:39:00;;;;;;;3.83;1.90;;;9.80;99.90;;;;;;5112643;28;20462;-56
2023/01/09 11:41:30;;;;;;;1.87;1.63;;;10.20;99.90;;;;;;5112741;28;20486;-56
2023/01/09 11:43:59;;;;;;;2.87;2.03;;;10.60;99.90;;;;;;5110452;28;20754;-56
2023/01/09 11:46:38;;;;;;;6.33;1.80;;;10.50;99.90;;;;;;5112777;28;20444;-56
2023/01/09 11:49:21;;;;;;;5.23;2.03;;;10.60;99.90;;;;;;5113285;28;20431;-56
2023/01/09 11:52:11;;;;;;;3.77;2.10;;;10.50;99.90;;;;;;5110573;28;20550;-56
2023/01/09 11:54:44;;;;;;;8.20;2.30;;;10.60;99.90;;;;;;5113114;28;20431;-56
2023/01/09 11:57:12;;;;;;;3.07;2.17;;;10.20;99.90;;;;;;5115429;28;20474;-56
2023/01/09 11:59:39;;;;;;;5.10;2.73;;;9.90;99.90;;;;;;5114567;28;20457;-57
2023/01/09 12:02:33;;;;;;;8.60;2.47;;;9.90;99.90;;;;;;5117284;28;20538;-56
2023/01/09 12:05:06;;;;;;;2.30;1.50;;;9.90;99.90;;;;;;5116690;28;20427;-56
2023/01/09 12:07:52;;;;;;;6.33;1.90;;;9.90;99.90;;;;;;5114684;28;20451;-57
2023/01/09 12:10:39;;;;;;;4.30;2.20;;;10.00;99.90;;;;;;5117306;28;20512;-56
2023/01/09 12:13:18;;;;;;;5.20;1.70;;;10.00;99.90;;;;;;5116655;28;20434;-56
2023/01/09 12:15:56;;;;;;;3.90;1.80;;;9.90;99.90;;;;;;5116216;28;21138;-56
2023/01/09 12:18:38;;;;;;;3.27;2.00;;;9.90;99.90;;;;;;5116776;28;20431;-57
2023/01/09 12:21:25;;;;;;;6.80;2.00;;;10.10;99.90;;;;;;5113621;28;20468;-56
2023/01/09 12:24:10;;;;;;;3.87;1.80;;;10.10;99.90;;;;;;5116556;28;20488;-57
2023/01/09 12:26:45;;;;;;;2.33;1.57;;;10.00;99.90;;;;;;5116005;28;20458;-57
2023/01/09 12:29:25;;;;;;;5.83;1.97;;;10.00;99.90;;;;;;5114501;28;20426;-56
2023/01/09 12:32:14;;;;;;;6.97;2.00;;;9.90;99.90;;;;;;5115988;28;20503;-56
2023/01/09 12:35:01;;;;;;;3.87;2.33;;;9.80;99.90;;;;;;5112587;28;20461;-56
2023/01/09 12:38:08;;;;;;;3.93;1.80;;;9.80;99.90;;;;;;5114368;28;20467;-55
2023/01/09 12:41:04;;;;;;;2.73;1.83;;;9.80;99.90;;;;;;5112530;28;20872;-55
2023/01/09 12:43:41;;;;;;;3.57;1.97;;;9.70;99.90;;;;;;5114149;28;20507;-56
2023/01/09 12:46:17;;;;;;;5.30;2.00;;;9.50;99.90;;;;;;5115990;28;20422;-57
2023/01/09 12:49:11;;;;;;;6.07;2.37;;;9.50;99.90;;;;;;5115726;28;20435;-56
2023/01/09 12:51:43;;;;;;;2.03;1.80;;;9.50;99.90;;;;;;5113454;28;20454;-56
2023/01/09 12:54:23;;;;;;;2.37;2.07;;;9.40;99.90;;;;;;5115886;28;20897;-56
2023/01/09 12:56:54;;;;;;;2.13;1.60;;;9.40;99.90;;;;;;5115386;28;20466;-56
2023/01/09 12:59:30;;;;;;;4.90;1.63;;;9.40;99.90;;;;;;5114022;28;20423;-57
2023/01/09 13:02:06;;;;;;;5.80;1.80;;;9.50;99.90;;;;;;5115297;28;20438;-57
2023/01/09 13:04:39;;;;;;;4.83;1.77;;;9.40;99.90;;;;;;5115522;28;20821;-57
2023/01/09 13:07:16;;;;;;;5.83;2.00;;;9.60;99.90;;;;;;5113683;28;20427;-57
2023/01/09 13:09:48;;;;;;;5.00;2.03;;;9.70;99.90;;;;;;5114885;28;20503;-56
2023/01/09 13:12:20;;;;;;;1.70;1.60;;;9.80;99.90;;;;;;5115747;28;20925;-56
2023/01/09 13:14:54;;;;;;;4.20;1.90;;;9.70;99.90;;;;;;5113955;28;20438;-56
2023/01/09 13:17:26;;;;;;;3.13;2.60;;;9.70;99.90;;;;;;5115294;28;20514;-57
2023/01/09 13:19:53;;;;;;;3.17;1.67;;;9.80;99.90;;;;;;5114933;28;20470;-57
2023/01/09 13:22:23;;;;;;;1.93;1.60;;;9.70;99.90;;;;;;5115318;28;20499;-56
2023/01/09 13:25:28;;;;;;;3.73;1.80;;;9.70;99.90;;;;;;5115130;28;20446;-57
2023/01/09 13:27:59;;;;;;;1.60;1.50;;;9.50;99.90;;;;;;5113609;28;20423;-57
2023/01/09 13:30:45;;;;;;;1.50;1.40;;;9.30;99.90;;;;;;5114914;28;20446;-56
2023/01/09 13:33:19;;;;;;;2.07;1.87;;;9.20;99.90;;;;;;5115024;28;20433;-56
2023/01/09 13:35:51;;;;;;;2.77;1.87;;;9.20;99.90;;;;;;5113197;28;20449;-58